Time;durP1;ratioP1;P1;durP2;ratioP2;P2;SDS_P1;SDS_P2;PMS_P1;PMS_P2;Temp;Humidity;BMP_temperature;BMP_pressure;BME280_temperature;BME280_humidity;BME280_pressure;Samples;Min_cycle;Max_cycle;Signal;HPM_P1;HPM_P2
2023/12/31 00:00:53;;;;;;;4.47;2.97;;;6.50;99.90;;;;;;478850;248;27583;-68
2023/12/31 00:02:54;;;;;;;2.80;2.60;;;6.50;99.90;;;;;;478841;248;27515;-67
2023/12/31 00:04:56;;;;;;;3.35;2.78;;;6.50;99.90;;;;;;478828;248;27613;-67
2023/12/31 00:06:57;;;;;;;4.55;3.37;;;6.50;99.90;;;;;;478860;248;27513;-68
2023/12/31 00:08:58;;;;;;;5.45;3.87;;;6.40;99.90;;;;;;478845;248;27509;-69
2023/12/31 00:11:00;;;;;;;3.50;3.20;;;6.40;99.90;;;;;;478859;248;28066;-68
2023/12/31 00:13:01;;;;;;;3.17;2.85;;;6.40;99.90;;;;;;478834;248;29429;-68
2023/12/31 00:15:02;;;;;;;3.83;3.00;;;6.30;99.90;;;;;;478758;248;27518;-67
2023/12/31 00:17:03;;;;;;;5.40;3.03;;;6.40;99.90;;;;;;478850;248;27603;-68
2023/12/31 00:19:05;;;;;;;6.00;5.43;;;6.30;99.90;;;;;;478833;248;27506;-69
2023/12/31 00:21:06;;;;;;;5.87;4.35;;;6.40;99.90;;;;;;478844;248;27579;-68
2023/12/31 00:23:11;;;;;;;4.37;3.85;;;6.30;99.90;;;;;;478839;248;28004;-67
2023/12/31 00:25:08;;;;;;;6.22;4.50;;;6.30;99.90;;;;;;478571;246;28378;-67
2023/12/31 00:27:09;;;;;;;4.47;3.95;;;6.20;99.90;;;;;;478857;248;27632;-67
2023/12/31 00:29:11;;;;;;;5.10;3.90;;;6.20;99.90;;;;;;478852;248;27518;-67
2023/12/31 00:31:12;;;;;;;3.72;2.87;;;6.20;99.90;;;;;;478845;248;27620;-67
2023/12/31 00:33:13;;;;;;;3.35;3.00;;;6.20;99.90;;;;;;478852;248;27610;-68
2023/12/31 00:35:14;;;;;;;2.87;2.57;;;6.10;99.90;;;;;;478806;248;27526;-68
2023/12/31 00:37:16;;;;;;;2.70;2.50;;;6.20;99.90;;;;;;478863;248;28340;-68
2023/12/31 00:39:17;;;;;;;2.40;2.20;;;6.10;99.90;;;;;;475622;248;28051;-68
2023/12/31 00:41:18;;;;;;;3.85;2.28;;;6.10;99.90;;;;;;472600;251;28082;-68
2023/12/31 00:43:19;;;;;;;2.40;2.30;;;6.20;99.90;;;;;;472565;251;27559;-69
2023/12/31 00:45:21;;;;;;;2.25;2.05;;;6.20;99.90;;;;;;472572;251;27667;-69
2023/12/31 00:47:22;;;;;;;1.80;1.70;;;6.20;99.90;;;;;;472597;251;27531;-68
2023/12/31 00:49:23;;;;;;;2.08;1.70;;;6.10;99.90;;;;;;472604;251;27545;-68
2023/12/31 00:51:25;;;;;;;1.70;1.60;;;6.10;99.90;;;;;;472556;251;27568;-68
2023/12/31 00:53:26;;;;;;;3.62;1.80;;;6.10;99.90;;;;;;472560;251;28063;-67
2023/12/31 00:55:27;;;;;;;2.33;2.12;;;6.10;99.90;;;;;;472608;251;27999;-68
2023/12/31 00:57:29;;;;;;;2.10;1.90;;;6.10;99.90;;;;;;472611;251;27649;-67
2023/12/31 00:59:30;;;;;;;2.62;1.70;;;6.00;99.90;;;;;;472578;251;27626;-68
2023/12/31 01:01:31;;;;;;;2.35;2.15;;;6.00;99.90;;;;;;472599;251;27544;-68
2023/12/31 01:03:33;;;;;;;2.30;2.10;;;6.00;99.90;;;;;;472569;251;27522;-67
2023/12/31 01:05:33;;;;;;;2.70;2.17;;;6.00;99.90;;;;;;472593;251;27541;-68
2023/12/31 01:07:35;;;;;;;1.90;1.80;;;6.10;99.90;;;;;;472613;251;30115;-67
2023/12/31 01:09:36;;;;;;;2.10;1.83;;;6.10;99.90;;;;;;472605;251;27997;-68
2023/12/31 01:11:37;;;;;;;2.00;1.77;;;6.20;99.90;;;;;;472596;251;27636;-69
2023/12/31 01:13:38;;;;;;;2.00;1.50;;;6.20;99.90;;;;;;472566;251;27630;-67
2023/12/31 01:15:40;;;;;;;2.00;1.62;;;6.20;99.90;;;;;;479548;247;27443;-68
2023/12/31 01:17:41;;;;;;;2.30;2.15;;;6.30;99.90;;;;;;482093;247;27472;-68
2023/12/31 01:19:42;;;;;;;6.18;1.85;;;6.30;99.90;;;;;;482102;247;27503;-68
2023/12/31 01:21:43;;;;;;;1.85;1.75;;;6.30;99.90;;;;;;482097;247;27420;-68
2023/12/31 01:23:45;;;;;;;2.00;1.90;;;6.30;99.90;;;;;;482052;247;27856;-68
2023/12/31 01:25:46;;;;;;;1.75;1.65;;;6.30;99.90;;;;;;482077;247;27513;-68
2023/12/31 01:27:47;;;;;;;1.90;1.80;;;6.30;99.90;;;;;;482094;247;27421;-69
2023/12/31 01:29:48;;;;;;;1.80;1.70;;;6.20;99.90;;;;;;482092;247;27478;-68
2023/12/31 01:31:50;;;;;;;2.25;1.67;;;6.20;99.90;;;;;;482089;247;27436;-68
2023/12/31 01:33:51;;;;;;;1.62;1.52;;;6.20;99.90;;;;;;482050;247;27488;-67
2023/12/31 01:35:52;;;;;;;2.10;2.00;;;6.20;99.90;;;;;;482077;247;27884;-67
2023/12/31 01:37:53;;;;;;;2.80;2.05;;;6.20;99.90;;;;;;482092;247;27891;-67
2023/12/31 01:39:55;;;;;;;2.03;1.90;;;6.10;99.90;;;;;;482094;247;27486;-67
2023/12/31 01:41:56;;;;;;;2.10;2.00;;;6.10;99.90;;;;;;482064;247;27506;-68
2023/12/31 01:43:57;;;;;;;2.45;1.90;;;6.20;99.90;;;;;;482044;247;27409;-67
2023/12/31 01:45:59;;;;;;;2.20;2.00;;;6.10;99.90;;;;;;482091;246;27504;-67
2023/12/31 01:48:00;;;;;;;2.30;2.10;;;6.20;99.90;;;;;;482084;247;27441;-69
2023/12/31 01:50:01;;;;;;;2.37;1.92;;;6.20;99.90;;;;;;482077;247;28846;-67
2023/12/31 01:52:02;;;;;;;7.28;1.90;;;6.20;99.90;;;;;;482078;247;28000;-68
2023/12/31 01:54:04;;;;;;;2.80;2.17;;;6.20;99.90;;;;;;482048;247;27875;-69
2023/12/31 01:56:05;;;;;;;1.73;1.62;;;6.20;99.90;;;;;;482080;247;27409;-67
2023/12/31 01:58:06;;;;;;;2.33;2.05;;;6.30;99.90;;;;;;482099;247;27405;-68
2023/12/31 02:00:07;;;;;;;2.92;2.15;;;6.30;99.90;;;;;;482094;247;27420;-67
2023/12/31 02:02:09;;;;;;;2.00;1.90;;;6.40;99.90;;;;;;482085;247;27417;-68
2023/12/31 02:04:10;;;;;;;3.95;2.53;;;6.50;99.90;;;;;;482043;247;28774;-69
2023/12/31 02:06:11;;;;;;;2.90;2.70;;;6.60;99.90;;;;;;481970;247;28004;-67
2023/12/31 02:08:12;;;;;;;2.95;2.67;;;6.60;99.90;;;;;;482093;247;27881;-67
2023/12/31 02:10:14;;;;;;;3.53;2.83;;;6.70;99.90;;;;;;482079;247;27408;-67
2023/12/31 02:12:15;;;;;;;4.93;2.40;;;6.60;99.90;;;;;;482057;247;27497;-67
2023/12/31 02:14:16;;;;;;;3.83;3.42;;;6.60;99.90;;;;;;482052;247;27421;-69
2023/12/31 02:16:17;;;;;;;2.70;2.50;;;6.70;99.90;;;;;;482094;247;27503;-67
2023/12/31 02:18:19;;;;;;;4.53;3.65;;;6.70;99.90;;;;;;482080;247;27959;-68
2023/12/31 02:20:20;;;;;;;4.03;2.83;;;6.70;99.90;;;;;;482087;247;27909;-69
2023/12/31 02:22:21;;;;;;;2.87;2.60;;;6.70;99.90;;;;;;482076;247;29225;-67
2023/12/31 02:24:22;;;;;;;2.90;2.70;;;6.60;99.90;;;;;;482033;247;29206;-68
2023/12/31 02:26:24;;;;;;;4.43;3.12;;;6.60;99.90;;;;;;482072;247;29342;-68
2023/12/31 02:28:25;;;;;;;5.47;3.12;;;6.60;99.90;;;;;;482079;247;27405;-68
2023/12/31 02:30:26;;;;;;;3.10;2.90;;;6.60;99.90;;;;;;482097;247;27477;-69
2023/12/31 02:32:27;;;;;;;4.03;3.53;;;6.60;99.90;;;;;;482088;247;27499;-67
2023/12/31 02:34:29;;;;;;;5.32;2.90;;;6.60;99.90;;;;;;482044;247;27478;-68
2023/12/31 02:36:30;;;;;;;3.42;3.10;;;6.60;99.90;;;;;;482084;247;28228;-68
2023/12/31 02:38:31;;;;;;;3.30;3.00;;;6.60;99.90;;;;;;482091;247;27896;-67
2023/12/31 02:40:32;;;;;;;3.83;3.00;;;6.50;99.90;;;;;;482083;247;29232;-68
2023/12/31 02:42:34;;;;;;;4.00;3.20;;;6.50;99.90;;;;;;482075;247;27477;-67
2023/12/31 02:44:35;;;;;;;6.10;3.50;;;6.50;99.90;;;;;;482038;247;28468;-68
2023/12/31 02:46:36;;;;;;;3.03;2.83;;;6.50;99.90;;;;;;482092;247;28751;-69
2023/12/31 02:48:37;;;;;;;4.25;3.85;;;6.50;99.90;;;;;;482085;247;28851;-67
2023/12/31 02:50:39;;;;;;;3.72;3.30;;;6.50;99.90;;;;;;482095;247;27485;-68
2023/12/31 02:52:40;;;;;;;4.70;3.37;;;6.50;99.90;;;;;;482088;247;27420;-68
2023/12/31 02:54:42;;;;;;;4.30;3.60;;;6.50;99.90;;;;;;482055;247;27944;-68
2023/12/31 02:56:42;;;;;;;4.00;3.57;;;6.50;99.90;;;;;;482046;246;29314;-69
2023/12/31 02:58:44;;;;;;;4.70;3.53;;;6.50;99.90;;;;;;482079;247;29246;-67
2023/12/31 03:00:45;;;;;;;3.90;3.50;;;6.50;99.90;;;;;;482071;247;28353;-68
2023/12/31 03:02:46;;;;;;;3.83;3.28;;;6.50;99.90;;;;;;482091;247;27508;-67
2023/12/31 03:04:47;;;;;;;3.33;3.03;;;6.50;99.90;;;;;;482048;247;27484;-68
2023/12/31 03:06:51;;;;;;;3.42;3.05;;;6.40;99.90;;;;;;482082;247;28583;-67
2023/12/31 03:08:50;;;;;;;6.30;4.37;;;6.40;99.90;;;;;;481973;246;27421;-68
2023/12/31 03:10:51;;;;;;;4.40;3.65;;;6.40;99.90;;;;;;482068;247;27969;-68
2023/12/31 03:12:53;;;;;;;7.13;3.83;;;6.40;99.90;;;;;;482086;247;27959;-68
2023/12/31 03:14:54;;;;;;;7.30;3.75;;;6.40;99.90;;;;;;482056;247;29223;-67
2023/12/31 03:16:55;;;;;;;6.20;3.70;;;6.40;99.90;;;;;;482080;247;27998;-68
2023/12/31 03:18:56;;;;;;;3.60;3.30;;;6.40;99.90;;;;;;482080;247;27468;-67
2023/12/31 03:20:58;;;;;;;4.45;4.05;;;6.40;99.90;;;;;;482080;247;27429;-68
2023/12/31 03:22:59;;;;;;;10.60;3.87;;;6.50;99.90;;;;;;482093;247;27412;-69
2023/12/31 03:25:00;;;;;;;4.37;3.90;;;6.50;99.90;;;;;;482048;247;27477;-67
2023/12/31 03:27:01;;;;;;;3.30;3.00;;;6.50;99.90;;;;;;482104;247;28760;-67
2023/12/31 03:29:03;;;;;;;6.47;3.95;;;6.60;99.90;;;;;;482074;247;29229;-68
2023/12/31 03:31:04;;;;;;;9.30;3.40;;;6.60;99.90;;;;;;482074;247;27884;-68
2023/12/31 03:33:05;;;;;;;5.20;3.53;;;6.60;99.90;;;;;;482080;247;28752;-68
2023/12/31 03:35:06;;;;;;;4.10;3.70;;;6.60;99.90;;;;;;482050;247;27401;-67
2023/12/31 03:37:08;;;;;;;6.00;3.20;;;6.60;99.90;;;;;;482084;247;27484;-68
2023/12/31 03:39:09;;;;;;;3.57;3.23;;;6.60;99.90;;;;;;482087;247;27405;-69
2023/12/31 03:41:10;;;;;;;3.60;3.30;;;6.60;99.90;;;;;;482071;247;28771;-67
2023/12/31 03:43:11;;;;;;;3.83;3.43;;;6.60;99.90;;;;;;482086;247;28582;-68
2023/12/31 03:45:13;;;;;;;4.07;3.10;;;6.60;99.90;;;;;;482033;247;28757;-67
2023/12/31 03:47:14;;;;;;;3.35;3.05;;;6.70;99.90;;;;;;482070;247;28505;-68
2023/12/31 03:49:15;;;;;;;4.60;3.47;;;6.70;99.90;;;;;;482080;247;27898;-69
2023/12/31 03:51:16;;;;;;;3.40;3.10;;;6.60;99.90;;;;;;482075;247;29304;-67
2023/12/31 03:53:18;;;;;;;3.90;3.50;;;6.70;99.90;;;;;;482063;247;29244;-68
2023/12/31 03:55:19;;;;;;;4.00;3.60;;;6.70;99.90;;;;;;482068;246;28098;-68
2023/12/31 03:57:20;;;;;;;3.53;3.20;;;6.70;99.90;;;;;;482076;247;27421;-68
2023/12/31 03:59:21;;;;;;;4.65;2.85;;;6.70;99.90;;;;;;482084;247;27423;-70
2023/12/31 04:01:23;;;;;;;3.30;3.00;;;6.70;99.90;;;;;;482076;247;27393;-68
2023/12/31 04:03:24;;;;;;;3.87;3.42;;;6.70;99.90;;;;;;482032;247;27421;-68
2023/12/31 04:05:25;;;;;;;4.17;3.40;;;6.80;99.90;;;;;;482082;247;28384;-68
2023/12/31 04:07:26;;;;;;;3.67;3.22;;;6.90;99.90;;;;;;481844;246;28408;-68
2023/12/31 04:09:28;;;;;;;4.00;3.47;;;6.90;99.90;;;;;;482018;246;27417;-69
2023/12/31 04:11:29;;;;;;;3.83;3.30;;;6.90;99.90;;;;;;482050;247;27980;-68
2023/12/31 04:13:30;;;;;;;3.05;2.83;;;7.00;99.90;;;;;;482041;247;28860;-68
2023/12/31 04:15:31;;;;;;;2.70;2.50;;;7.00;99.90;;;;;;482080;247;27397;-68
2023/12/31 04:17:33;;;;;;;5.90;3.43;;;7.00;99.90;;;;;;482065;247;27630;-67
2023/12/31 04:19:34;;;;;;;3.03;2.53;;;7.00;99.90;;;;;;482075;247;28179;-67
2023/12/31 04:21:35;;;;;;;7.47;2.60;;;7.00;99.90;;;;;;482069;247;27509;-67
2023/12/31 04:23:36;;;;;;;3.28;2.67;;;7.10;99.90;;;;;;482047;247;28769;-68
2023/12/31 04:25:38;;;;;;;2.90;2.70;;;7.10;99.90;;;;;;482087;247;27428;-69
2023/12/31 04:27:40;;;;;;;2.80;2.60;;;7.00;99.90;;;;;;482076;247;27638;-67
2023/12/31 04:29:40;;;;;;;2.60;2.40;;;7.00;99.90;;;;;;482040;247;28405;-68
2023/12/31 04:31:42;;;;;;;3.13;2.80;;;7.00;99.90;;;;;;482058;247;28436;-67
2023/12/31 04:33:43;;;;;;;3.00;2.70;;;7.00;99.90;;;;;;482027;247;28356;-68
2023/12/31 04:35:44;;;;;;;2.60;2.40;;;7.10;99.90;;;;;;482037;247;27408;-69
2023/12/31 04:37:45;;;;;;;3.83;2.40;;;7.20;99.90;;;;;;482080;247;27877;-67
2023/12/31 04:39:46;;;;;;;2.75;2.55;;;7.20;99.90;;;;;;482081;247;27487;-68
2023/12/31 04:41:48;;;;;;;3.40;2.63;;;7.30;99.90;;;;;;482076;247;27503;-67
2023/12/31 04:43:49;;;;;;;2.87;2.30;;;7.30;99.90;;;;;;482042;247;27974;-68
2023/12/31 04:45:50;;;;;;;2.80;2.57;;;7.40;99.90;;;;;;482082;247;27547;-68
2023/12/31 04:47:51;;;;;;;3.80;2.63;;;7.50;99.90;;;;;;482072;247;27988;-68
2023/12/31 04:49:53;;;;;;;3.20;2.90;;;7.50;99.90;;;;;;482074;247;27780;-69
2023/12/31 04:51:54;;;;;;;2.20;2.10;;;7.60;99.90;;;;;;482071;247;28007;-68
2023/12/31 04:53:55;;;;;;;2.90;2.70;;;7.60;99.90;;;;;;482047;247;27973;-68
2023/12/31 04:55:56;;;;;;;2.93;2.40;;;7.60;99.90;;;;;;482074;247;27842;-67
2023/12/31 04:57:58;;;;;;;2.50;2.30;;;7.60;99.90;;;;;;482078;247;27763;-67
2023/12/31 04:59:59;;;;;;;3.57;2.57;;;7.70;99.90;;;;;;482082;247;28495;-67
2023/12/31 05:02:00;;;;;;;3.50;2.37;;;7.70;99.90;;;;;;482060;247;28287;-69
2023/12/31 05:04:01;;;;;;;2.50;2.30;;;7.70;99.90;;;;;;481924;246;28488;-67
2023/12/31 05:06:03;;;;;;;2.47;2.27;;;7.70;99.90;;;;;;482076;247;28117;-67
2023/12/31 05:08:04;;;;;;;3.60;2.70;;;7.70;99.90;;;;;;482077;247;27871;-67
2023/12/31 05:10:05;;;;;;;2.47;2.27;;;7.70;99.90;;;;;;482089;246;28339;-67
2023/12/31 05:12:06;;;;;;;3.13;2.60;;;7.70;99.90;;;;;;482072;247;27882;-68
2023/12/31 05:14:08;;;;;;;2.70;2.33;;;7.80;99.90;;;;;;482047;247;27977;-68
2023/12/31 05:16:09;;;;;;;4.83;2.20;;;7.80;99.90;;;;;;482056;247;28087;-68
2023/12/31 05:18:10;;;;;;;4.30;2.20;;;7.90;99.90;;;;;;482075;247;27895;-67
2023/12/31 05:20:11;;;;;;;2.43;2.23;;;7.80;99.90;;;;;;482080;247;27909;-68
2023/12/31 05:22:13;;;;;;;2.60;2.40;;;7.80;99.90;;;;;;482074;246;27847;-68
2023/12/31 05:24:14;;;;;;;2.33;2.20;;;7.90;99.90;;;;;;482056;247;28027;-67
2023/12/31 05:26:15;;;;;;;3.30;2.30;;;7.90;99.90;;;;;;482099;247;28099;-67
2023/12/31 05:28:16;;;;;;;2.80;2.33;;;7.80;99.90;;;;;;482097;247;27951;-66
2023/12/31 05:30:18;;;;;;;2.63;2.10;;;7.90;99.90;;;;;;482084;247;27543;-67
2023/12/31 05:32:19;;;;;;;4.00;2.13;;;7.90;99.90;;;;;;482090;247;27841;-66
2023/12/31 05:34:20;;;;;;;2.40;2.20;;;7.90;99.90;;;;;;482061;247;27964;-67
2023/12/31 05:36:21;;;;;;;2.20;2.00;;;7.90;99.90;;;;;;481929;246;27658;-67
2023/12/31 05:38:23;;;;;;;2.33;2.20;;;7.90;99.90;;;;;;482096;247;27526;-68
2023/12/31 05:40:24;;;;;;;3.53;2.27;;;8.00;99.90;;;;;;482097;247;28252;-67
2023/12/31 05:42:27;;;;;;;2.10;2.00;;;7.90;99.90;;;;;;482081;247;28361;-67
2023/12/31 05:44:26;;;;;;;4.70;2.50;;;8.00;99.90;;;;;;481971;246;28355;-67
2023/12/31 05:46:28;;;;;;;3.50;2.60;;;7.90;99.90;;;;;;482093;247;28359;-67
2023/12/31 05:48:29;;;;;;;2.53;2.33;;;7.90;99.90;;;;;;482093;247;28495;-68
2023/12/31 05:50:30;;;;;;;4.40;2.20;;;7.90;99.90;;;;;;481978;247;28401;-67
2023/12/31 05:52:31;;;;;;;2.60;2.30;;;8.00;99.90;;;;;;482082;247;27974;-67
2023/12/31 05:54:33;;;;;;;2.60;2.40;;;8.00;99.90;;;;;;482062;247;27882;-66
2023/12/31 05:56:34;;;;;;;2.57;2.37;;;8.00;99.90;;;;;;482096;247;28072;-67
2023/12/31 05:58:35;;;;;;;2.60;2.37;;;8.00;99.90;;;;;;482086;247;27987;-67
2023/12/31 06:00:36;;;;;;;2.60;2.40;;;8.00;99.90;;;;;;482086;247;27960;-67
2023/12/31 06:02:38;;;;;;;2.30;2.20;;;8.00;99.90;;;;;;482087;247;27976;-67
2023/12/31 06:04:39;;;;;;;2.53;2.33;;;7.90;99.90;;;;;;482074;247;27776;-67
2023/12/31 06:06:40;;;;;;;2.47;2.27;;;7.90;99.90;;;;;;482092;247;27891;-67
2023/12/31 06:08:42;;;;;;;7.50;2.93;;;7.90;99.90;;;;;;482086;247;27546;-67
2023/12/31 06:10:43;;;;;;;2.97;2.40;;;7.90;99.90;;;;;;482080;247;28041;-67
2023/12/31 06:12:44;;;;;;;2.93;2.73;;;7.90;99.90;;;;;;482094;247;27867;-67
2023/12/31 06:14:45;;;;;;;2.33;2.07;;;7.90;99.90;;;;;;482057;246;27915;-68
2023/12/31 06:16:46;;;;;;;4.17;2.60;;;7.80;99.90;;;;;;482097;247;27972;-67
2023/12/31 06:18:48;;;;;;;4.80;3.03;;;7.80;99.90;;;;;;482079;247;27536;-67
2023/12/31 06:20:49;;;;;;;3.30;2.67;;;7.80;99.90;;;;;;482087;247;28223;-67
2023/12/31 06:22:50;;;;;;;5.00;3.60;;;7.70;99.90;;;;;;482088;247;28397;-67
2023/12/31 06:24:51;;;;;;;6.93;5.37;;;7.70;99.90;;;;;;482050;247;28606;-69
2023/12/31 06:26:53;;;;;;;5.03;4.47;;;7.70;99.90;;;;;;482076;247;28463;-67
2023/12/31 06:28:54;;;;;;;4.23;3.47;;;7.70;99.90;;;;;;482088;247;28035;-67
2023/12/31 06:30:55;;;;;;;5.00;4.60;;;7.70;99.90;;;;;;482090;247;28114;-67
2023/12/31 06:32:56;;;;;;;4.63;4.10;;;7.60;99.90;;;;;;482094;247;27834;-67
2023/12/31 06:34:58;;;;;;;4.27;3.10;;;7.70;99.90;;;;;;482049;247;27409;-68
2023/12/31 06:36:59;;;;;;;3.93;2.80;;;7.60;99.90;;;;;;482092;247;27888;-67
2023/12/31 06:39:00;;;;;;;2.83;2.50;;;7.70;99.90;;;;;;482097;247;27979;-67
2023/12/31 06:41:01;;;;;;;3.20;2.90;;;7.70;99.90;;;;;;482085;247;27838;-68
2023/12/31 06:43:03;;;;;;;2.50;2.30;;;7.70;99.90;;;;;;482094;247;27985;-67
2023/12/31 06:45:04;;;;;;;3.10;2.40;;;7.60;99.90;;;;;;482043;246;27887;-68
2023/12/31 06:47:05;;;;;;;2.70;2.50;;;7.60;99.90;;;;;;482090;247;27654;-67
2023/12/31 06:49:06;;;;;;;2.70;2.50;;;7.60;99.90;;;;;;482093;247;27848;-67
2023/12/31 06:51:08;;;;;;;2.80;2.60;;;7.70;99.90;;;;;;481978;247;27825;-69
2023/12/31 06:53:09;;;;;;;5.23;2.90;;;7.70;99.90;;;;;;482099;247;27980;-67
2023/12/31 06:55:11;;;;;;;3.10;2.80;;;7.60;99.90;;;;;;482060;247;27957;-68
2023/12/31 06:57:11;;;;;;;3.20;2.70;;;7.70;99.90;;;;;;482033;246;27898;-67
2023/12/31 06:59:13;;;;;;;2.60;2.40;;;7.70;99.90;;;;;;482088;247;27649;-67
2023/12/31 07:01:14;;;;;;;2.87;2.67;;;7.80;99.90;;;;;;478495;246;28389;-68
2023/12/31 07:03:15;;;;;;;2.60;2.40;;;7.80;99.90;;;;;;467434;254;28553;-68
2023/12/31 07:05:16;;;;;;;3.90;2.77;;;7.90;99.90;;;;;;474847;250;28747;-66
2023/12/31 07:07:18;;;;;;;4.53;3.00;;;7.90;99.90;;;;;;474787;250;29949;-67
2023/12/31 07:09:19;;;;;;;2.60;2.40;;;7.90;99.90;;;;;;474940;250;28388;-67
2023/12/31 07:11:20;;;;;;;3.10;2.80;;;7.90;99.90;;;;;;474947;250;27969;-66
2023/12/31 07:13:21;;;;;;;3.20;2.50;;;8.00;99.90;;;;;;474452;248;28148;-67
2023/12/31 07:15:23;;;;;;;2.93;2.63;;;8.00;99.90;;;;;;474913;250;28008;-67
2023/12/31 07:17:24;;;;;;;3.03;2.80;;;8.00;99.90;;;;;;474924;250;27908;-68
2023/12/31 07:19:25;;;;;;;3.20;2.90;;;8.00;99.90;;;;;;475728;243;27986;-67
2023/12/31 07:21:27;;;;;;;2.40;2.30;;;8.00;99.90;;;;;;489429;242;27919;-68
2023/12/31 07:23:28;;;;;;;6.10;2.40;;;8.00;99.90;;;;;;487700;242;27927;-66
2023/12/31 07:25:30;;;;;;;4.90;2.70;;;8.00;99.90;;;;;;481603;241;27916;-66
2023/12/31 07:27:30;;;;;;;3.17;2.87;;;8.00;99.90;;;;;;479331;247;27798;-68
2023/12/31 07:29:31;;;;;;;3.17;2.60;;;8.00;99.90;;;;;;479373;247;27467;-67
2023/12/31 07:31:35;;;;;;;2.60;2.40;;;8.00;99.90;;;;;;479356;247;27913;-68
2023/12/31 07:33:34;;;;;;;2.50;2.30;;;8.00;99.90;;;;;;479331;247;27924;-67
2023/12/31 07:35:36;;;;;;;2.87;2.67;;;8.00;99.90;;;;;;484742;243;28018;-68
2023/12/31 07:37:38;;;;;;;2.57;2.37;;;8.10;99.90;;;;;;484180;245;28066;-67
2023/12/31 07:39:38;;;;;;;3.27;2.33;;;8.10;99.90;;;;;;476018;250;27996;-67
2023/12/31 07:41:39;;;;;;;3.03;2.73;;;8.10;99.90;;;;;;488496;243;28261;-69
2023/12/31 07:43:43;;;;;;;2.80;2.50;;;8.10;99.90;;;;;;488616;243;28518;-69
2023/12/31 07:45:44;;;;;;;2.80;2.60;;;8.10;99.90;;;;;;488571;243;27583;-67
2023/12/31 07:47:46;;;;;;;3.17;2.90;;;8.00;99.90;;;;;;489009;243;28127;-69
2023/12/31 07:49:47;;;;;;;3.33;3.03;;;8.00;99.90;;;;;;488405;243;28433;-68
2023/12/31 07:51:48;;;;;;;8.97;2.83;;;8.10;99.90;;;;;;488930;243;27906;-67
2023/12/31 07:53:49;;;;;;;3.00;2.77;;;8.10;99.90;;;;;;488994;243;27740;-67
2023/12/31 07:55:50;;;;;;;2.90;2.70;;;8.20;99.90;;;;;;488851;243;27862;-67
2023/12/31 07:57:52;;;;;;;3.07;2.77;;;8.20;99.90;;;;;;485223;240;27968;-67
2023/12/31 07:59:53;;;;;;;3.50;2.80;;;8.30;99.90;;;;;;476197;246;28021;-69
2023/12/31 08:01:55;;;;;;;3.23;2.93;;;8.30;99.90;;;;;;477192;249;27981;-67
2023/12/31 08:03:55;;;;;;;3.33;2.40;;;8.30;99.90;;;;;;471222;251;28098;-68
2023/12/31 08:05:57;;;;;;;2.70;2.30;;;8.30;99.90;;;;;;472189;248;27881;-68
2023/12/31 08:07:58;;;;;;;3.83;3.00;;;8.30;99.90;;;;;;478873;244;28350;-68
2023/12/31 08:09:59;;;;;;;3.40;3.10;;;8.30;99.90;;;;;;484145;243;28418;-68
2023/12/31 08:12:00;;;;;;;3.40;3.00;;;8.30;99.90;;;;;;474933;246;28350;-67
2023/12/31 08:14:02;;;;;;;3.33;2.60;;;8.30;99.90;;;;;;484834;242;28385;-69
2023/12/31 08:16:04;;;;;;;3.13;2.83;;;8.30;99.90;;;;;;485040;244;29609;-67
2023/12/31 08:18:04;;;;;;;7.53;2.57;;;8.40;99.90;;;;;;485079;244;28488;-67
2023/12/31 08:20:05;;;;;;;2.90;2.47;;;8.40;99.90;;;;;;484305;241;28046;-68
2023/12/31 08:22:07;;;;;;;3.27;2.90;;;8.50;99.90;;;;;;487864;243;27832;-66
2023/12/31 08:24:08;;;;;;;3.80;3.40;;;8.50;99.90;;;;;;483791;242;27724;-66
2023/12/31 08:26:09;;;;;;;2.97;2.77;;;8.50;99.90;;;;;;482189;243;28022;-67
2023/12/31 08:28:10;;;;;;;2.93;2.73;;;8.50;99.90;;;;;;486520;243;27889;-67
2023/12/31 08:30:11;;;;;;;4.30;2.77;;;8.50;99.90;;;;;;486054;243;27944;-67
2023/12/31 08:32:13;;;;;;;4.00;3.03;;;8.60;99.90;;;;;;486589;243;28020;-67
2023/12/31 08:34:14;;;;;;;4.43;3.17;;;8.60;99.90;;;;;;485947;242;27889;-67
2023/12/31 08:36:15;;;;;;;3.83;2.80;;;8.60;99.90;;;;;;483940;243;28046;-70
2023/12/31 08:38:16;;;;;;;3.13;2.83;;;8.70;99.90;;;;;;486199;243;27887;-68
2023/12/31 08:40:21;;;;;;;5.80;2.97;;;8.70;99.90;;;;;;487182;242;27557;-67
2023/12/31 08:42:19;;;;;;;3.70;3.10;;;8.60;99.90;;;;;;484907;243;27835;-70
2023/12/31 08:44:20;;;;;;;6.20;2.90;;;8.60;99.90;;;;;;487099;242;28047;-68
2023/12/31 08:46:21;;;;;;;6.93;3.07;;;8.60;99.90;;;;;;486901;243;27985;-68
2023/12/31 08:48:23;;;;;;;2.70;2.50;;;8.60;99.90;;;;;;482585;243;28443;-67
2023/12/31 08:50:24;;;;;;;2.83;2.50;;;8.60;99.90;;;;;;485791;241;28358;-67
2023/12/31 08:52:25;;;;;;;3.63;2.80;;;8.70;99.90;;;;;;486427;243;28634;-67
2023/12/31 08:54:26;;;;;;;4.60;3.20;;;8.70;99.90;;;;;;484800;241;28267;-68
2023/12/31 08:56:28;;;;;;;3.80;3.50;;;8.80;99.90;;;;;;487589;243;28336;-68
2023/12/31 08:58:29;;;;;;;8.20;3.27;;;8.80;99.90;;;;;;485605;243;28399;-67
2023/12/31 09:00:30;;;;;;;3.73;3.43;;;8.70;99.90;;;;;;484204;242;27973;-68
2023/12/31 09:02:31;;;;;;;4.23;3.20;;;8.70;99.90;;;;;;486911;243;27937;-67
2023/12/31 09:04:34;;;;;;;4.83;3.50;;;8.80;99.90;;;;;;486971;241;28154;-67
2023/12/31 09:06:34;;;;;;;3.33;3.10;;;8.80;99.90;;;;;;487042;243;27462;-68
2023/12/31 09:08:36;;;;;;;3.60;3.27;;;8.90;99.90;;;;;;486521;243;27998;-67
2023/12/31 09:10:36;;;;;;;5.73;2.70;;;8.90;99.90;;;;;;484044;243;27996;-67
2023/12/31 09:12:38;;;;;;;2.93;2.70;;;8.80;99.90;;;;;;486309;243;27833;-69
2023/12/31 09:14:39;;;;;;;3.30;3.00;;;8.70;99.90;;;;;;486914;241;27636;-67
2023/12/31 09:16:40;;;;;;;3.73;3.43;;;8.70;99.90;;;;;;483842;243;27764;-68
2023/12/31 09:18:41;;;;;;;3.13;2.83;;;8.80;99.90;;;;;;484852;242;27653;-67
2023/12/31 09:20:43;;;;;;;3.47;3.17;;;8.80;99.90;;;;;;485132;243;27929;-67
2023/12/31 09:22:44;;;;;;;3.63;3.20;;;8.80;99.90;;;;;;488175;241;27702;-69
2023/12/31 09:24:46;;;;;;;2.87;2.60;;;8.90;99.90;;;;;;487336;243;27775;-68
2023/12/31 09:26:46;;;;;;;4.20;3.23;;;8.90;99.90;;;;;;486154;243;27948;-68
2023/12/31 09:28:50;;;;;;;3.13;2.83;;;8.80;99.90;;;;;;486793;241;29079;-67
2023/12/31 09:30:50;;;;;;;3.47;3.17;;;8.80;99.90;;;;;;487398;243;28277;-67
2023/12/31 09:32:50;;;;;;;3.87;3.10;;;8.80;99.90;;;;;;484819;242;28535;-67
2023/12/31 09:34:51;;;;;;;4.77;3.80;;;8.90;99.90;;;;;;485237;243;28241;-67
2023/12/31 09:36:53;;;;;;;2.53;2.40;;;8.90;99.90;;;;;;486770;243;28397;-67
2023/12/31 09:38:54;;;;;;;4.20;3.80;;;8.80;99.90;;;;;;484889;243;27889;-70
2023/12/31 09:40:55;;;;;;;5.03;3.10;;;8.70;99.90;;;;;;484749;243;28080;-67
2023/12/31 09:42:56;;;;;;;4.73;3.33;;;8.60;99.90;;;;;;486230;243;27949;-67
2023/12/31 09:44:58;;;;;;;3.97;3.57;;;8.60;99.90;;;;;;485931;243;27912;-71
2023/12/31 09:47:00;;;;;;;3.87;3.30;;;8.60;99.90;;;;;;485555;243;27878;-71
2023/12/31 09:49:02;;;;;;;5.00;3.13;;;8.70;99.90;;;;;;484082;243;28003;-73
2023/12/31 09:51:01;;;;;;;4.50;3.17;;;8.70;99.90;;;;;;486408;243;27917;-72
2023/12/31 09:53:03;;;;;;;5.23;3.70;;;8.70;99.90;;;;;;485155;243;27923;-72
2023/12/31 09:55:04;;;;;;;8.50;5.93;;;8.80;99.90;;;;;;484371;243;27568;-73
2023/12/31 09:57:06;;;;;;;4.30;3.90;;;8.80;99.90;;;;;;486609;242;27604;-74
2023/12/31 09:59:07;;;;;;;3.17;2.90;;;8.80;99.90;;;;;;483029;243;28099;-72
2023/12/31 10:01:08;;;;;;;3.60;3.30;;;8.80;99.90;;;;;;485372;243;28059;-74
2023/12/31 10:03:09;;;;;;;4.30;3.43;;;8.70;99.90;;;;;;482849;243;27733;-73
2023/12/31 10:05:11;;;;;;;3.40;3.10;;;8.70;99.90;;;;;;484629;243;27887;-71
2023/12/31 10:07:12;;;;;;;3.70;2.90;;;8.70;99.90;;;;;;485291;243;28058;-72
2023/12/31 10:09:13;;;;;;;7.20;3.17;;;8.70;99.90;;;;;;486557;243;27825;-72
2023/12/31 10:11:14;;;;;;;3.33;3.00;;;8.70;99.90;;;;;;485496;243;28147;-70
2023/12/31 10:13:16;;;;;;;3.27;3.00;;;8.70;99.90;;;;;;488098;243;27660;-71
2023/12/31 10:15:17;;;;;;;4.37;3.17;;;8.70;99.90;;;;;;484717;243;27462;-73
2023/12/31 10:17:18;;;;;;;3.10;2.80;;;8.70;99.90;;;;;;486977;243;27874;-72
2023/12/31 10:19:19;;;;;;;4.70;3.20;;;8.70;99.90;;;;;;483968;243;27859;-71
2023/12/31 10:21:20;;;;;;;6.80;4.00;;;8.60;99.90;;;;;;486554;243;28425;-74
2023/12/31 10:23:22;;;;;;;5.73;3.47;;;8.60;99.90;;;;;;483751;243;28364;-72
2023/12/31 10:25:24;;;;;;;4.17;3.77;;;8.60;99.90;;;;;;478926;244;28406;-73
2023/12/31 10:27:24;;;;;;;5.17;3.60;;;8.60;99.90;;;;;;484562;244;28284;-72
2023/12/31 10:29:25;;;;;;;3.83;3.37;;;8.60;99.90;;;;;;486211;244;27817;-72
2023/12/31 10:31:27;;;;;;;5.27;3.70;;;8.60;99.90;;;;;;485058;244;27891;-71
2023/12/31 10:33:29;;;;;;;5.57;3.73;;;8.60;99.90;;;;;;479979;244;27888;-72
2023/12/31 10:35:29;;;;;;;5.10;3.83;;;8.60;99.90;;;;;;484912;244;27907;-73
2023/12/31 10:37:30;;;;;;;4.87;4.10;;;8.60;99.90;;;;;;485570;244;27814;-72
2023/12/31 10:39:32;;;;;;;4.60;4.13;;;8.50;99.90;;;;;;480575;244;27960;-73